Time;durP1;ratioP1;P1;durP2;ratioP2;P2;SDS_P1;SDS_P2;PMS_P1;PMS_P2;Temp;Humidity;BMP_temperature;BMP_pressure;BME280_temperature;BME280_humidity;BME280_pressure;Samples;Min_cycle;Max_cycle;Signal;HPM_P1;HPM_P2
2020/12/26 00:01:57;;;;;;;19.58;4.65;;;;;;;17.92;72.03;101709.00;5094812;28;20028;-73
2020/12/26 00:04:22;;;;;;;14.13;4.30;;;;;;;17.95;71.63;101708.13;5093632;28;20036;-73
2020/12/26 00:06:47;;;;;;;25.88;4.50;;;;;;;17.92;71.97;101711.66;5110372;28;20049;-74
2020/12/26 00:09:13;;;;;;;22.73;4.85;;;;;;;17.87;71.99;101722.38;5093045;28;20481;-74
2020/12/26 00:11:38;;;;;;;9.60;4.00;;;;;;;17.89;72.29;101725.03;5094859;28;20499;-74
2020/12/26 00:14:03;;;;;;;7.53;3.97;;;;;;;17.88;72.25;101726.81;5094365;28;20400;-74
2020/12/26 00:16:29;;;;;;;4.47;3.85;;;;;;;17.86;71.96;101719.69;5092929;28;20435;-74
2020/12/26 00:18:54;;;;;;;7.43;4.40;;;;;;;17.88;72.29;101716.13;5092525;28;20036;-74
2020/12/26 00:21:19;;;;;;;6.25;3.75;;;;;;;17.85;71.61;101718.78;5094096;28;20043;-74
2020/12/26 00:23:45;;;;;;;8.30;3.45;;;;;;;17.86;72.27;101722.34;5093826;28;20028;-74
2020/12/26 00:26:10;;;;;;;7.90;3.17;;;;;;;17.85;71.78;101708.09;5094462;28;20046;-74
2020/12/26 00:28:35;;;;;;;8.90;3.30;;;;;;;17.85;72.42;101713.44;5094084;28;20503;-75
2020/12/26 00:31:01;;;;;;;5.28;3.63;;;;;;;17.85;72.33;101716.13;5093104;28;20028;-75
2020/12/26 00:33:26;;;;;;;4.32;3.50;;;;;;;17.87;72.23;101719.69;5092448;28;20078;-75
2020/12/26 00:35:52;;;;;;;5.75;4.15;;;;;;;17.87;71.90;101726.81;5092801;28;20039;-73
2020/12/26 00:38:17;;;;;;;12.48;3.30;;;;;;;17.86;72.38;101717.91;5093413;28;20051;-74
2020/12/26 00:40:42;;;;;;;8.20;3.33;;;;;;;17.84;72.04;101714.38;5093034;28;20020;-74
2020/12/26 00:43:08;;;;;;;4.25;3.78;;;;;;;17.84;72.35;101711.69;5092803;28;20421;-74
2020/12/26 00:45:33;;;;;;;4.88;3.38;;;;;;;17.87;72.19;101717.03;5092972;28;20059;-75
2020/12/26 00:47:59;;;;;;;5.07;3.70;;;;;;;17.85;72.66;101715.25;5092407;28;20024;-75
2020/12/26 00:50:24;;;;;;;19.35;3.63;;;;;;;17.87;72.60;101716.13;5107998;28;20461;-76
2020/12/26 00:52:50;;;;;;;7.78;3.53;;;;;;;17.86;72.44;101717.00;5109301;28;20024;-75
2020/12/26 00:55:15;;;;;;;5.80;3.75;;;;;;;17.87;72.11;101710.78;5092511;28;20042;-75
2020/12/26 00:57:42;;;;;;;4.90;3.33;;;;;;;17.86;72.62;101712.56;5092431;28;20032;-75
2020/12/26 01:00:07;;;;;;;6.55;3.33;;;;;;;17.87;72.11;101705.44;5093376;28;20027;-75
2020/12/26 01:02:32;;;;;;;7.70;3.50;;;;;;;17.86;72.58;101707.22;5093752;28;20028;-75
2020/12/26 01:04:58;;;;;;;7.18;3.85;;;;;;;17.85;72.58;101704.56;5093296;28;20032;-75
2020/12/26 01:07:23;;;;;;;8.55;3.53;;;;;;;17.90;72.18;101708.13;5093321;28;20038;-74
2020/12/26 01:09:48;;;;;;;4.43;3.42;;;;;;;17.91;72.15;101713.47;5093241;28;20103;-74
2020/12/26 01:12:14;;;;;;;7.25;3.10;;;;;;;17.88;72.36;101708.13;5093205;28;20059;-74
2020/12/26 01:14:42;;;;;;;8.32;3.00;;;;;;;17.91;71.99;101707.25;5102668;28;20031;-74
2020/12/26 01:17:07;;;;;;;5.68;3.95;;;;;;;17.91;72.00;101704.56;5091653;28;20044;-74
2020/12/26 01:19:32;;;;;;;4.95;3.75;;;;;;;17.91;72.62;101702.78;5092964;28;20093;-74
2020/12/26 01:21:58;;;;;;;4.03;2.83;;;;;;;17.97;71.93;101693.88;5092492;28;20073;-74
2020/12/26 01:24:23;;;;;;;4.20;3.05;;;;;;;17.95;72.03;101694.75;5093049;28;20036;-74
2020/12/26 01:26:48;;;;;;;5.53;2.92;;;;;;;17.96;72.48;101696.53;5091728;28;20032;-74
2020/12/26 01:29:14;;;;;;;4.32;3.47;;;;;;;17.96;72.28;101688.53;5093577;28;20035;-74
2020/12/26 01:31:39;;;;;;;3.75;3.08;;;;;;;17.96;72.28;101688.53;5093273;28;20040;-74
2020/12/26 01:34:05;;;;;;;4.28;2.80;;;;;;;17.95;71.93;101679.63;5091410;28;20111;-74
2020/12/26 01:36:30;;;;;;;8.35;2.72;;;;;;;17.99;72.02;101683.16;5091681;28;20032;-74
2020/12/26 01:38:56;;;;;;;4.75;2.80;;;;;;;17.95;71.85;101673.38;5091054;28;20028;-73
2020/12/26 01:41:21;;;;;;;4.65;2.97;;;;;;;17.96;71.82;101668.06;5091493;28;20549;-73
2020/12/26 01:43:46;;;;;;;5.03;2.83;;;;;;;17.93;71.90;101666.25;5092445;28;20024;-73
2020/12/26 01:46:12;;;;;;;4.53;3.33;;;;;;;17.92;71.79;101668.91;5092614;28;20040;-73
2020/12/26 01:48:37;;;;;;;4.50;2.80;;;;;;;17.92;72.26;101668.91;5092592;28;20114;-73
2020/12/26 01:51:02;;;;;;;3.15;2.85;;;;;;;17.92;72.25;101668.91;5091963;28;20035;-73
2020/12/26 01:53:27;;;;;;;4.03;2.85;;;;;;;17.94;72.25;101664.47;5092498;28;20423;-74
2020/12/26 01:55:53;;;;;;;3.55;3.08;;;;;;;17.94;71.70;101669.81;5091165;28;20366;-74
2020/12/26 01:58:18;;;;;;;6.82;2.70;;;;;;;17.94;71.98;101664.47;5092571;28;20038;-74
2020/12/26 02:00:43;;;;;;;3.40;2.70;;;;;;;17.96;72.10;101665.38;5090306;28;20081;-74
2020/12/26 02:03:09;;;;;;;16.70;2.70;;;;;;;17.97;71.56;101661.81;5107853;28;20101;-75
2020/12/26 02:05:34;;;;;;;8.68;2.75;;;;;;;17.97;71.63;101661.81;5092169;28;20027;-75
2020/12/26 02:07:59;;;;;;;3.88;2.95;;;;;;;18.05;71.60;101659.16;5092154;28;20035;-75
2020/12/26 02:10:25;;;;;;;5.43;2.78;;;;;;;18.04;71.87;101652.91;5091243;28;20720;-74
2020/12/26 02:12:50;;;;;;;10.00;2.83;;;;;;;18.04;71.56;101650.25;5091970;28;20059;-74
2020/12/26 02:15:15;;;;;;;3.95;2.70;;;;;;;17.98;71.94;101649.34;5091565;28;20040;-74
2020/12/26 02:17:41;;;;;;;6.40;3.10;;;;;;;17.97;71.59;101659.16;5091448;28;20048;-74
2020/12/26 02:20:06;;;;;;;8.35;2.50;;;;;;;17.98;71.86;101654.69;5107520;28;20040;-74
2020/12/26 02:22:31;;;;;;;6.57;2.70;;;;;;;17.96;71.47;101660.03;5092016;28;20036;-74
2020/12/26 02:24:57;;;;;;;4.97;2.95;;;;;;;17.98;71.36;101654.69;5091916;28;20476;-73
2020/12/26 02:27:22;;;;;;;20.35;3.65;;;;;;;17.91;72.11;101648.47;5090446;28;20377;-75
2020/12/26 02:29:47;;;;;;;15.65;3.13;;;;;;;17.94;72.15;101648.44;5090022;28;20115;-74
2020/12/26 02:32:13;;;;;;;4.65;2.63;;;;;;;17.91;72.26;101651.13;5090703;28;20028;-75
2020/12/26 02:34:38;;;;;;;4.43;2.45;;;;;;;17.91;72.22;101645.78;5090600;28;20089;-75
2020/12/26 02:37:03;;;;;;;3.80;2.72;;;;;;;17.89;72.29;101648.47;5090211;28;20036;-75
2020/12/26 02:39:29;;;;;;;8.32;2.70;;;;;;;17.89;72.20;101647.56;5092142;28;20131;-75
2020/12/26 02:41:54;;;;;;;7.25;2.67;;;;;;;17.89;71.67;101642.22;5091424;28;20077;-75
2020/12/26 02:44:19;;;;;;;5.93;2.72;;;;;;;17.87;72.21;101641.31;5090619;28;20046;-75
2020/12/26 02:46:45;;;;;;;5.40;2.20;;;;;;;17.85;71.91;101638.63;5090599;28;20016;-75
2020/12/26 02:49:10;;;;;;;7.15;2.67;;;;;;;17.85;71.75;101635.13;5090022;28;20384;-75
2020/12/26 02:51:35;;;;;;;3.33;2.47;;;;;;;17.85;71.66;101624.44;5090473;28;20437;-75
2020/12/26 02:54:01;;;;;;;4.00;2.50;;;;;;;17.85;72.12;101635.13;5091629;28;20056;-74
2020/12/26 02:56:26;;;;;;;6.13;2.38;;;;;;;17.92;71.66;101636.84;5090860;28;20055;-74
2020/12/26 02:58:51;;;;;;;3.30;2.25;;;;;;;17.94;72.08;101632.41;5091071;28;20039;-74
2020/12/26 03:01:17;;;;;;;2.90;2.60;;;;;;;17.95;71.67;101626.19;5091281;28;20039;-74
2020/12/26 03:03:42;;;;;;;5.68;2.22;;;;;;;17.94;71.43;101619.06;5090221;28;20044;-74
2020/12/26 03:06:07;;;;;;;4.53;2.30;;;;;;;17.95;71.31;101623.50;5090477;28;20111;-74
2020/12/26 03:08:33;;;;;;;7.78;2.58;;;;;;;17.91;71.54;101617.31;5089930;28;20016;-74
2020/12/26 03:10:58;;;;;;;9.82;2.88;;;;;;;17.92;71.96;101620.81;5106801;28;20376;-74
2020/12/26 03:13:23;;;;;;;11.10;2.20;;;;;;;17.92;71.44;101634.19;5106412;28;20108;-74
2020/12/26 03:15:49;;;;;;;5.90;2.58;;;;;;;17.98;71.64;101628.88;5091735;28;20016;-74
2020/12/26 03:18:14;;;;;;;4.60;2.28;;;;;;;17.98;71.41;101625.31;5090617;28;20048;-74
2020/12/26 03:20:39;;;;;;;2.80;2.30;;;;;;;17.95;71.60;101641.31;5089966;28;20032;-74
2020/12/26 03:23:05;;;;;;;5.50;2.20;;;;;;;17.96;71.28;101627.06;5090667;28;20513;-73
2020/12/26 03:25:30;;;;;;;2.30;2.10;;;;;;;17.96;71.13;101632.41;5091215;28;20456;-73
2020/12/26 03:27:55;;;;;;;2.75;2.40;;;;;;;17.96;71.34;101649.34;5090855;28;20036;-74
2020/12/26 03:30:21;;;;;;;2.75;2.35;;;;;;;17.99;70.87;101645.75;5090632;28;20035;-74
2020/12/26 03:32:46;;;;;;;2.55;1.83;;;;;;;17.99;71.10;101648.44;5091041;28;20067;-75
2020/12/26 03:35:12;;;;;;;3.75;2.30;;;;;;;17.92;71.43;101651.09;5091004;28;20385;-74
2020/12/26 03:37:37;;;;;;;2.10;1.90;;;;;;;17.93;71.22;101649.34;5090882;28;20048;-76
2020/12/26 03:40:02;;;;;;;5.95;2.15;;;;;;;17.90;71.41;101650.25;5089763;28;20028;-76
2020/12/26 03:42:28;;;;;;;4.95;2.15;;;;;;;17.90;71.74;101646.69;5089300;28;20373;-75
2020/12/26 03:44:53;;;;;;;4.30;2.30;;;;;;;17.85;71.86;101646.66;5091202;28;20048;-76
2020/12/26 03:47:18;;;;;;;2.10;1.67;;;;;;;17.85;71.42;101651.13;5091329;28;20024;-75
2020/12/26 03:49:44;;;;;;;2.72;2.00;;;;;;;17.82;71.85;101657.34;5091391;28;20028;-76
2020/12/26 03:52:09;;;;;;;2.55;1.90;;;;;;;17.81;71.34;101654.69;5091198;28;20059;-75
2020/12/26 03:54:34;;;;;;;2.30;2.10;;;;;;;17.83;71.40;101658.25;5090869;28;20383;-76
2020/12/26 03:57:00;;;;;;;1.90;1.55;;;;;;;17.82;71.71;101652.03;5090303;28;20089;-75
2020/12/26 03:59:25;;;;;;;2.67;2.20;;;;;;;17.85;71.57;101662.69;5089100;28;20032;-75
2020/12/26 04:01:50;;;;;;;2.65;2.20;;;;;;;17.84;71.67;101654.69;5090952;28;20104;-75
2020/12/26 04:04:16;;;;;;;6.22;2.22;;;;;;;17.84;71.10;101657.38;5090549;28;20439;-75
2020/12/26 04:06:41;;;;;;;3.45;2.35;;;;;;;17.85;71.67;101653.81;5088863;28;20052;-76
2020/12/26 04:09:06;;;;;;;8.55;1.90;;;;;;;17.85;71.83;101656.47;5089360;28;20043;-73
2020/12/26 04:11:32;;;;;;;5.70;2.08;;;;;;;17.82;71.40;101660.03;5090838;28;20062;-73
2020/12/26 04:13:57;;;;;;;2.83;1.95;;;;;;;17.85;71.77;101652.00;5089505;28;20153;-73
2020/12/26 04:16:22;;;;;;;14.13;2.28;;;;;;;17.85;71.36;101653.81;5090575;28;20392;-73
2020/12/26 04:18:48;;;;;;;11.07;2.70;;;;;;;17.86;71.58;101655.56;5090688;28;20028;-73
2020/12/26 04:21:13;;;;;;;2.33;1.85;;;;;;;17.86;71.17;101664.47;5090429;28;20039;-73
2020/12/26 04:23:38;;;;;;;2.45;2.05;;;;;;;17.86;71.55;101666.25;5090134;28;20487;-73
2020/12/26 04:26:04;;;;;;;1.60;1.50;;;;;;;17.86;71.17;101668.91;5094122;28;20630;-73
2020/12/26 04:28:29;;;;;;;3.10;1.83;;;;;;;17.86;71.66;101664.47;5094070;28;20050;-73
2020/12/26 04:30:54;;;;;;;2.88;1.73;;;;;;;17.85;71.68;101667.16;5092896;28;20074;-73
2020/12/26 04:33:20;;;;;;;2.45;1.65;;;;;;;17.83;71.69;101661.81;5091982;28;20035;-73
2020/12/26 04:35:45;;;;;;;3.22;1.50;;;;;;;17.84;71.11;101666.28;5092556;28;20467;-73
2020/12/26 04:38:10;;;;;;;2.60;1.85;;;;;;;17.84;71.30;101670.72;5092713;28;20117;-72
2020/12/26 04:40:36;;;;;;;2.00;1.80;;;;;;;17.83;71.21;101664.50;5093814;28;20032;-73
2020/12/26 04:43:01;;;;;;;2.28;1.63;;;;;;;17.83;70.91;101668.94;5094194;28;20027;-73
2020/12/26 04:45:26;;;;;;;2.97;1.75;;;;;;;17.85;71.28;101668.03;5092147;28;20032;-72
2020/12/26 04:47:52;;;;;;;2.90;1.85;;;;;;;17.85;71.24;101678.72;5093112;28;20043;-73
2020/12/26 04:50:17;;;;;;;2.28;1.88;;;;;;;17.86;70.53;101676.94;5093854;28;20057;-72
2020/12/26 04:52:42;;;;;;;2.58;1.80;;;;;;;17.85;71.18;101673.38;5093726;28;20097;-73
2020/12/26 04:55:08;;;;;;;2.75;1.52;;;;;;;17.88;70.68;101669.81;5093663;28;20070;-73
2020/12/26 04:57:33;;;;;;;5.22;1.50;;;;;;;17.87;70.77;101670.72;5092423;28;20032;-73
2020/12/26 04:59:58;;;;;;;3.15;1.77;;;;;;;17.88;70.58;101669.81;5092133;28;20373;-73
2020/12/26 05:02:24;;;;;;;2.15;1.95;;;;;;;17.88;71.03;101673.38;5093296;28;20038;-73
2020/12/26 05:04:49;;;;;;;4.63;1.60;;;;;;;17.86;70.46;101669.81;5093389;28;20132;-73
2020/12/26 05:07:15;;;;;;;1.98;1.77;;;;;;;17.87;70.40;101676.06;5093172;28;20381;-73
2020/12/26 05:09:40;;;;;;;2.35;1.48;;;;;;;17.90;70.85;101681.41;5092566;28;20389;-73
2020/12/26 05:12:05;;;;;;;2.30;1.92;;;;;;;17.90;70.18;101676.06;5092001;28;20511;-73
2020/12/26 05:14:31;;;;;;;2.45;1.30;;;;;;;17.87;70.46;101674.28;5092942;28;20032;-74
2020/12/26 05:16:56;;;;;;;6.05;1.90;;;;;;;17.88;70.42;101677.84;5092554;28;20442;-72
2020/12/26 05:19:22;;;;;;;2.50;1.70;;;;;;;17.91;70.99;101685.88;5092507;28;20051;-73
2020/12/26 05:21:47;;;;;;;4.30;1.65;;;;;;;17.90;70.85;101689.44;5093274;28;20035;-73
2020/12/26 05:24:12;;;;;;;2.38;1.50;;;;;;;17.90;70.93;101686.75;5092299;28;20032;-73
2020/12/26 05:26:38;;;;;;;2.33;1.65;;;;;;;17.89;70.36;101683.19;5092755;28;20047;-73
2020/12/26 05:29:04;;;;;;;1.40;1.30;;;;;;;17.91;70.40;101691.22;5092468;28;20107;-73
2020/12/26 05:31:29;;;;;;;2.78;1.70;;;;;;;17.90;70.79;101695.66;5092652;28;20415;-73
2020/12/26 05:33:54;;;;;;;1.90;1.63;;;;;;;17.90;70.46;101694.78;5092941;28;20028;-73
2020/12/26 05:36:20;;;;;;;2.55;1.50;;;;;;;17.88;70.86;101694.75;5091545;28;20028;-73
2020/12/26 05:38:45;;;;;;;1.67;1.58;;;;;;;17.88;70.71;101696.53;5092339;28;20081;-73
2020/12/26 05:41:10;;;;;;;1.70;1.45;;;;;;;17.88;70.48;101697.44;5092778;28;20047;-73
2020/12/26 05:43:36;;;;;;;1.63;1.30;;;;;;;17.87;70.81;101698.31;5092396;28;20111;-73
2020/12/26 05:46:01;;;;;;;2.30;1.70;;;;;;;17.88;71.09;101708.13;5091405;28;20067;-73
2020/12/26 05:48:26;;;;;;;1.70;1.55;;;;;;;17.85;70.73;101707.25;5092134;28;20024;-73
2020/12/26 05:50:52;;;;;;;1.73;1.30;;;;;;;17.85;70.45;101712.59;5091170;28;20054;-73
2020/12/26 05:53:17;;;;;;;1.60;1.20;;;;;;;17.85;70.71;101723.28;5092661;28;20476;-74
2020/12/26 05:55:43;;;;;;;2.33;1.48;;;;;;;17.85;70.28;101724.13;5091296;28;20506;-73
2020/12/26 05:58:08;;;;;;;3.25;1.40;;;;;;;17.83;70.44;101717.91;5091858;28;20054;-74
2020/12/26 06:00:33;;;;;;;1.42;1.20;;;;;;;17.86;70.35;101712.56;5092339;28;20028;-73
2020/12/26 06:02:59;;;;;;;10.95;1.30;;;;;;;17.98;70.44;101718.81;5090985;28;20059;-73
2020/12/26 06:05:24;;;;;;;8.75;1.63;;;;;;;17.94;69.91;101731.28;5091273;28;20088;-75
2020/12/26 06:07:49;;;;;;;15.32;1.77;;;;;;;17.90;70.74;101727.72;5091623;28;20024;-75
2020/12/26 06:10:15;;;;;;;5.45;1.55;;;;;;;17.88;70.82;101720.59;5092729;28;20043;-74
2020/12/26 06:12:40;;;;;;;6.38;1.52;;;;;;;17.99;70.20;101723.25;5092454;28;20392;-74
2020/12/26 06:15:05;;;;;;;8.68;1.50;;;;;;;18.03;69.77;101722.38;5090957;28;20182;-75
2020/12/26 06:17:31;;;;;;;12.13;1.60;;;;;;;17.97;69.99;101725.94;5090552;28;20135;-74
2020/12/26 06:19:56;;;;;;;18.60;1.50;;;;;;;17.95;70.11;101727.72;5091959;28;20089;-74
2020/12/26 06:22:21;;;;;;;11.50;1.80;;;;;;;17.93;69.92;101727.72;5092249;28;20032;-74
2020/12/26 06:24:47;;;;;;;12.93;1.70;;;;;;;17.92;69.68;101730.38;5090925;28;20028;-74
2020/12/26 06:27:12;;;;;;;22.90;1.63;;;;;;;17.98;69.79;101732.19;5090065;28;20048;-75
2020/12/26 06:29:37;;;;;;;21.38;1.63;;;;;;;17.96;69.94;101732.19;5094865;28;20389;-75
2020/12/26 06:32:03;;;;;;;23.38;1.85;;;;;;;17.94;70.62;101741.97;5075588;28;20024;-75
2020/12/26 06:34:28;;;;;;;7.63;1.65;;;;;;;17.95;70.54;101748.19;5090832;28;20401;-75
2020/12/26 06:36:54;;;;;;;4.68;1.52;;;;;;;17.97;70.20;101744.66;5079316;28;20405;-76
2020/12/26 06:39:20;;;;;;;7.15;1.40;;;;;;;17.96;70.26;101745.53;5091235;28;20028;-76
2020/12/26 06:41:45;;;;;;;8.35;1.63;;;;;;;17.95;70.11;101749.09;5106946;28;20069;-75
2020/12/26 06:44:10;;;;;;;10.48;1.70;;;;;;;17.98;70.20;101748.22;5099932;28;20111;-76
2020/12/26 06:46:36;;;;;;;9.52;1.40;;;;;;;17.99;70.36;101756.22;5110801;28;20055;-75
2020/12/26 06:49:02;;;;;;;5.50;1.40;;;;;;;17.97;70.57;101758.00;5102869;28;20434;-76
2020/12/26 06:51:27;;;;;;;4.78;1.42;;;;;;;17.99;70.24;101750.88;5105646;28;20028;-76
2020/12/26 06:53:53;;;;;;;4.57;1.50;;;;;;;17.97;70.27;101757.13;5091086;28;20153;-75
2020/12/26 06:56:19;;;;;;;6.15;1.50;;;;;;;17.96;69.78;101750.00;5091387;28;20102;-75
2020/12/26 06:58:44;;;;;;;2.33;1.33;;;;;;;17.95;70.17;101757.09;5090034;28;20036;-75
2020/12/26 07:01:10;;;;;;;3.28;1.20;;;;;;;18.01;69.60;101748.19;5093880;28;20034;-76
2020/12/26 07:03:35;;;;;;;4.28;1.35;;;;;;;18.00;69.75;101758.00;5102850;28;20039;-75
2020/12/26 07:06:02;;;;;;;2.05;1.50;;;;;;;17.97;69.67;101766.03;5090502;28;20111;-75
2020/12/26 07:08:27;;;;;;;2.13;1.40;;;;;;;17.99;70.11;101753.53;5090294;28;20369;-76
2020/12/26 07:10:53;;;;;;;2.92;1.20;;;;;;;18.03;69.43;101762.47;5088445;28;20027;-75
2020/12/26 07:13:18;;;;;;;8.88;1.42;;;;;;;18.05;69.83;101761.56;5079701;28;20039;-75
2020/12/26 07:15:43;;;;;;;3.45;1.27;;;;;;;18.02;69.17;101771.38;5090878;28;20119;-76
2020/12/26 07:18:09;;;;;;;6.35;1.50;;;;;;;18.01;69.77;101765.13;5105089;28;20078;-74
2020/12/26 07:20:34;;;;;;;3.97;1.13;;;;;;;17.98;69.50;101766.94;5097629;28;20123;-75
2020/12/26 07:22:59;;;;;;;5.72;1.10;;;;;;;18.01;69.70;101772.25;5091210;28;20063;-76
2020/12/26 07:25:25;;;;;;;4.35;1.10;;;;;;;17.96;69.46;101766.00;5089972;28;20036;-76
2020/12/26 07:27:50;;;;;;;7.50;1.95;;;;;;;17.97;69.68;101766.03;5095897;28;20389;-75
2020/12/26 07:30:15;;;;;;;3.47;1.45;;;;;;;18.00;69.54;101771.34;5102595;28;20102;-75
2020/12/26 07:32:41;;;;;;;5.05;1.33;;;;;;;17.96;69.72;101782.94;5089796;28;20067;-76
2020/12/26 07:35:06;;;;;;;3.17;1.35;;;;;;;17.97;69.39;101789.19;5106322;28;20093;-76
2020/12/26 07:37:32;;;;;;;16.98;1.50;;;;;;;18.07;69.40;101791.84;5101687;28;20044;-75
2020/12/26 07:39:57;;;;;;;4.53;1.30;;;;;;;18.02;69.71;101795.41;5092962;28;20088;-76
2020/12/26 07:42:23;;;;;;;8.80;1.80;;;;;;;18.03;69.34;101800.78;5107066;28;20488;-76
2020/12/26 07:44:48;;;;;;;19.75;2.42;;;;;;;18.07;69.30;101798.97;5086937;28;20110;-75
2020/12/26 07:47:14;;;;;;;24.63;3.03;;;;;;;18.26;69.10;101798.09;5090559;28;20165;-74
2020/12/26 07:49:39;;;;;;;46.83;3.08;;;;;;;18.27;68.42;101787.44;5090608;28;20111;-72
2020/12/26 07:52:05;;;;;;;39.92;3.25;;;;;;;18.13;68.53;101789.19;5089647;28;20471;-72
2020/12/26 07:54:30;;;;;;;17.50;2.60;;;;;;;18.09;68.57;101794.53;5090044;28;20192;-74
2020/12/26 07:56:55;;;;;;;49.05;2.95;;;;;;;18.15;70.88;101806.13;5089806;28;20430;-73
2020/12/26 07:59:21;;;;;;;83.53;3.58;;;;;;;18.23;70.32;101800.81;5089934;28;20043;-73
2020/12/26 08:01:46;;;;;;;83.80;3.80;;;;;;;18.25;70.16;101799.00;5094856;28;20407;-75
2020/12/26 08:04:11;;;;;;;49.17;3.63;;;;;;;18.18;69.38;101806.13;5093634;28;20161;-71
2020/12/26 08:06:37;;;;;;;41.78;2.97;;;;;;;18.08;69.83;101807.00;5093874;28;20048;-70
2020/12/26 08:09:02;;;;;;;48.90;5.63;;;;;;;18.05;70.02;101816.81;5093966;28;20498;-70
2020/12/26 08:11:27;;;;;;;30.25;2.95;;;;;;;18.02;69.51;101820.38;5094449;28;20027;-71
2020/12/26 08:13:53;;;;;;;27.23;2.67;;;;;;;18.01;69.97;101818.56;5092543;28;20103;-70
2020/12/26 08:16:18;;;;;;;37.45;2.50;;;;;;;18.00;69.69;101821.22;5094048;28;20031;-70
2020/12/26 08:18:43;;;;;;;29.67;2.42;;;;;;;17.98;69.47;101815.03;5093545;28;20039;-70
2020/12/26 08:21:09;;;;;;;26.77;3.33;;;;;;;17.96;69.56;101803.44;5094079;28;20032;-70
2020/12/26 08:23:35;;;;;;;16.63;2.28;;;;;;;17.96;70.17;101809.66;5093094;28;20507;-70
2020/12/26 08:26:00;;;;;;;20.27;2.33;;;;;;;17.95;70.29;101805.19;5092776;28;20115;-71
2020/12/26 08:28:26;;;;;;;12.38;2.80;;;;;;;17.96;69.84;101793.63;5093040;28;20028;-70
2020/12/26 08:30:51;;;;;;;17.77;3.08;;;;;;;17.93;69.75;101796.28;5093774;28;20028;-70
2020/12/26 08:33:16;;;;;;;19.75;3.17;;;;;;;17.93;70.03;101805.19;5091391;28;20028;-71
2020/12/26 08:35:41;;;;;;;16.20;2.25;;;;;;;17.99;70.24;101803.41;5094152;28;20028;-71
2020/12/26 08:38:07;;;;;;;11.55;2.20;;;;;;;18.00;69.83;101797.19;5092286;28;20024;-74
2020/12/26 08:40:32;;;;;;;20.08;2.40;;;;;;;17.99;70.03;101806.09;5092904;28;20119;-75
2020/12/26 08:42:57;;;;;;;13.75;2.10;;;;;;;18.00;69.70;101805.19;5091864;28;20050;-75
2020/12/26 08:45:23;;;;;;;12.63;2.15;;;;;;;17.93;69.94;101797.19;5091802;28;20500;-77
2020/12/26 08:47:48;;;;;;;10.85;2.60;;;;;;;17.92;70.30;101798.06;5092840;28;20039;-75
2020/12/26 08:50:13;;;;;;;17.63;3.17;;;;;;;17.92;69.76;101802.50;5092750;28;20065;-73
2020/12/26 08:52:39;;;;;;;25.05;3.42;;;;;;;17.92;69.91;101797.16;5087735;28;20050;-72
2020/12/26 08:55:04;;;;;;;10.98;4.88;;;;;;;17.91;69.97;101790.97;5090969;28;20639;-73
2020/12/26 08:57:30;;;;;;;10.02;6.85;;;;;;;17.92;70.22;101791.81;5090255;28;20434;-73
2020/12/26 08:59:55;;;;;;;19.88;8.88;;;;;;;17.91;69.92;101785.63;5090228;28;20032;-72
2020/12/26 09:02:20;;;;;;;16.10;11.50;;;;;;;17.91;69.70;101790.06;5090656;28;20032;-72
2020/12/26 09:04:46;;;;;;;17.15;14.18;;;;;;;17.91;69.61;101774.94;5088465;28;20051;-73
2020/12/26 09:07:11;;;;;;;23.48;18.48;;;;;;;17.91;70.18;101774.03;5088590;28;20064;-72
2020/12/26 09:09:36;;;;;;;25.77;20.70;;;;;;;17.91;69.75;101766.91;5091416;28;20086;-74
2020/12/26 09:12:02;;;;;;;25.50;22.02;;;;;;;17.90;70.36;101767.81;5088886;28;20050;-71
2020/12/26 09:14:27;;;;;;;30.60;25.05;;;;;;;17.90;69.90;101770.47;5089124;28;20368;-71
2020/12/26 09:16:52;;;;;;;35.92;28.65;;;;;;;17.91;70.24;101771.38;5089320;28;20075;-71
2020/12/26 09:19:18;;;;;;;35.42;30.88;;;;;;;17.90;70.32;101767.81;5090240;28;20028;-73
2020/12/26 09:21:43;;;;;;;38.50;32.85;;;;;;;17.90;69.86;101758.88;5089316;28;20028;-71
2020/12/26 09:24:08;;;;;;;38.50;34.08;;;;;;;17.90;69.98;101749.09;5091552;28;20572;-73
2020/12/26 09:26:34;;;;;;;51.67;37.15;;;;;;;17.90;70.45;101749.09;5091766;28;20445;-72
2020/12/26 09:28:59;;;;;;;44.15;39.08;;;;;;;17.89;70.17;101755.31;5088763;28;20040;-72
2020/12/26 09:31:24;;;;;;;52.83;37.15;;;;;;;17.89;70.46;101752.66;5089785;28;20028;-72
2020/12/26 09:33:50;;;;;;;47.80;38.33;;;;;;;17.90;70.73;101750.88;5088627;28;20028;-71
2020/12/26 09:36:15;;;;;;;47.35;39.00;;;;;;;17.89;70.26;101751.75;5090785;28;20431;-71
2020/12/26 09:38:41;;;;;;;45.13;38.65;;;;;;;17.89;70.37;101751.75;5089194;28;20035;-71
2020/12/26 09:41:06;;;;;;;45.85;39.90;;;;;;;17.92;71.01;101749.06;5090997;28;20042;-71
2020/12/26 09:43:31;;;;;;;48.55;37.55;;;;;;;17.92;70.37;101746.41;5090463;28;20035;-71
2020/12/26 09:45:57;;;;;;;46.28;39.65;;;;;;;17.92;70.89;101741.94;5089865;28;20419;-72
2020/12/26 09:48:22;;;;;;;67.35;38.60;;;;;;;18.01;71.02;101745.53;5090828;28;20047;-74
2020/12/26 09:50:47;;;;;;;80.90;41.75;;;;;;;18.02;71.29;101739.31;5091599;28;20039;-74
2020/12/26 09:53:13;;;;;;;79.20;44.10;;;;;;;17.99;71.17;101734.84;5089391;28;20070;-71
2020/12/26 09:55:38;;;;;;;86.43;42.60;;;;;;;18.04;71.12;101729.50;5089879;28;20039;-72
2020/12/26 09:58:03;;;;;;;80.22;42.80;;;;;;;18.02;71.10;101732.19;5091008;28;20103;-71
2020/12/26 10:00:29;;;;;;;73.75;40.58;;;;;;;18.01;71.46;101733.06;5090363;28;20395;-70
2020/12/26 10:02:54;;;;;;;79.00;42.30;;;;;;;17.96;71.59;101737.53;5091353;28;20032;-70
2020/12/26 10:05:19;;;;;;;91.47;43.25;;;;;;;17.95;71.34;101730.38;5090298;28;20431;-71
2020/12/26 10:07:45;;;;;;;75.03;39.63;;;;;;;17.94;71.42;101728.59;5091670;28;20433;-71
2020/12/26 10:10:10;;;;;;;62.85;40.33;;;;;;;17.94;71.67;101723.25;5086457;28;20040;-73
2020/12/26 10:12:36;;;;;;;56.47;40.65;;;;;;;17.94;72.01;101723.25;5089763;28;20023;-71
2020/12/26 10:15:02;;;;;;;63.63;40.42;;;;;;;17.93;71.75;101722.38;5085993;28;20118;-70
2020/12/26 10:17:27;;;;;;;55.95;39.65;;;;;;;17.92;71.69;101712.56;5087950;28;20473;-71
2020/12/26 10:19:52;;;;;;;69.28;41.70;;;;;;;17.93;71.69;101716.13;5088756;28;20421;-70
2020/12/26 10:22:18;;;;;;;59.55;40.60;;;;;;;17.95;71.87;101718.81;5087584;28;20028;-70
2020/12/26 10:24:43;;;;;;;49.92;38.40;;;;;;;17.93;71.88;101713.47;5087234;28;20035;-70
2020/12/26 10:27:08;;;;;;;59.70;40.22;;;;;;;17.92;72.36;101706.31;5086652;28;20055;-70
2020/12/26 10:29:34;;;;;;;57.00;37.75;;;;;;;17.91;72.06;101699.22;5088042;28;20145;-71
2020/12/26 10:31:59;;;;;;;49.05;38.47;;;;;;;17.91;72.47;101696.56;5088616;28;20396;-70
2020/12/26 10:34:24;;;;;;;49.05;36.60;;;;;;;17.92;72.17;101688.50;5087725;28;20024;-70
2020/12/26 10:36:50;;;;;;;42.03;37.13;;;;;;;17.90;71.99;101684.09;5088823;28;20047;-70
2020/12/26 10:39:15;;;;;;;52.38;37.88;;;;;;;17.90;72.04;101681.41;5088316;28;20024;-69
2020/12/26 10:41:40;;;;;;;43.67;38.25;;;;;;;17.90;72.08;101674.28;5088693;28;20055;-70
2020/12/26 10:44:06;;;;;;;46.03;38.35;;;;;;;17.91;72.03;101669.84;5087136;28;20058;-70
2020/12/26 10:46:31;;;;;;;41.80;36.05;;;;;;;17.90;72.13;101670.72;5087913;28;20477;-70
2020/12/26 10:48:56;;;;;;;49.25;35.67;;;;;;;17.90;72.15;101665.38;5088584;28;20044;-69
2020/12/26 10:51:22;;;;;;;50.83;36.20;;;;;;;17.93;72.36;101662.69;5087813;28;20142;-71
2020/12/26 10:53:47;;;;;;;42.30;35.45;;;;;;;17.91;72.58;101653.81;5087829;28;20039;-72
2020/12/26 10:56:12;;;;;;;43.03;36.58;;;;;;;17.92;72.42;101655.56;5086414;28;20047;-70
2020/12/26 10:58:38;;;;;;;43.40;35.15;;;;;;;17.91;72.33;101660.03;5087245;28;20031;-70
2020/12/26 11:01:03;;;;;;;38.78;31.65;;;;;;;17.90;72.20;101654.69;5088581;28;20403;-70
2020/12/26 11:03:28;;;;;;;39.95;35.35;;;;;;;17.91;72.27;101654.69;5086865;28;20385;-69
2020/12/26 11:05:54;;;;;;;38.95;34.30;;;;;;;17.90;72.63;101657.38;5088265;28;20028;-69
2020/12/26 11:08:19;;;;;;;45.90;33.15;;;;;;;17.89;72.79;101658.25;5088250;28;20043;-69
2020/12/26 11:10:44;;;;;;;40.40;33.75;;;;;;;17.91;72.83;101657.38;5086551;28;20036;-69